sensor_id;sensor_type;location;lat;lon;timestamp;P1;durP1;ratioP1;P2;durP2;ratioP2
69991;SDS011;57332;51.320;-0.580;2023-05-07T00:00:51;11.90;;;5.70;;
69991;SDS011;57332;51.320;-0.580;2023-05-07T00:03:17;10.75;;;5.28;;
69991;SDS011;57332;51.320;-0.580;2023-05-07T00:05:45;13.10;;;5.38;;
69991;SDS011;57332;51.320;-0.580;2023-05-07T00:08:13;11.82;;;6.05;;
69991;SDS011;57332;51.320;-0.580;2023-05-07T00:10:40;14.15;;;6.75;;
69991;SDS011;57332;51.320;-0.580;2023-05-07T00:13:07;13.98;;;6.93;;
69991;SDS011;57332;51.320;-0.580;2023-05-07T00:15:34;14.23;;;7.45;;
69991;SDS011;57332;51.320;-0.580;2023-05-07T00:18:01;14.90;;;7.25;;
69991;SDS011;57332;51.320;-0.580;2023-05-07T00:20:28;15.90;;;6.82;;
69991;SDS011;57332;51.320;-0.580;2023-05-07T00:22:54;17.52;;;7.85;;
69991;SDS011;57332;51.320;-0.580;2023-05-07T00:25:21;16.70;;;8.35;;
69991;SDS011;57332;51.320;-0.580;2023-05-07T00:27:48;20.73;;;8.75;;
69991;SDS011;57332;51.320;-0.580;2023-05-07T00:30:15;20.10;;;8.57;;
69991;SDS011;57332;51.320;-0.580;2023-05-07T00:32:42;22.48;;;9.50;;
69991;SDS011;57332;51.320;-0.580;2023-05-07T00:35:12;25.10;;;10.18;;
69991;SDS011;57332;51.320;-0.580;2023-05-07T00:37:39;23.38;;;9.05;;
69991;SDS011;57332;51.320;-0.580;2023-05-07T00:40:06;22.92;;;9.13;;
69991;SDS011;57332;51.320;-0.580;2023-05-07T00:42:34;25.10;;;9.57;;
69991;SDS011;57332;51.320;-0.580;2023-05-07T00:45:01;24.85;;;10.13;;
69991;SDS011;57332;51.320;-0.580;2023-05-07T00:47:29;26.20;;;9.38;;
69991;SDS011;57332;51.320;-0.580;2023-05-07T00:49:56;24.77;;;9.60;;
69991;SDS011;57332;51.320;-0.580;2023-05-07T00:52:23;28.30;;;9.63;;
69991;SDS011;57332;51.320;-0.580;2023-05-07T00:54:52;21.48;;;8.60;;
69991;SDS011;57332;51.320;-0.580;2023-05-07T00:57:19;25.13;;;9.35;;
69991;SDS011;57332;51.320;-0.580;2023-05-07T00:59:48;22.98;;;9.05;;
69991;SDS011;57332;51.320;-0.580;2023-05-07T01:02:15;22.77;;;8.25;;
69991;SDS011;57332;51.320;-0.580;2023-05-07T01:04:41;26.30;;;8.73;;
69991;SDS011;57332;51.320;-0.580;2023-05-07T01:07:09;20.55;;;8.40;;
69991;SDS011;57332;51.320;-0.580;2023-05-07T01:09:36;23.63;;;9.38;;
69991;SDS011;57332;51.320;-0.580;2023-05-07T01:12:03;22.02;;;7.75;;
69991;SDS011;57332;51.320;-0.580;2023-05-07T01:14:30;20.23;;;7.70;;
69991;SDS011;57332;51.320;-0.580;2023-05-07T01:16:59;18.88;;;7.75;;
69991;SDS011;57332;51.320;-0.580;2023-05-07T01:19:26;21.40;;;7.80;;
69991;SDS011;57332;51.320;-0.580;2023-05-07T01:21:56;21.33;;;7.95;;
69991;SDS011;57332;51.320;-0.580;2023-05-07T01:24:27;20.38;;;7.78;;
69991;SDS011;57332;51.320;-0.580;2023-05-07T01:26:54;16.33;;;6.45;;
69991;SDS011;57332;51.320;-0.580;2023-05-07T01:29:21;18.83;;;6.57;;
69991;SDS011;57332;51.320;-0.580;2023-05-07T01:31:48;17.67;;;6.43;;
69991;SDS011;57332;51.320;-0.580;2023-05-07T01:34:15;14.52;;;5.95;;
69991;SDS011;57332;51.320;-0.580;2023-05-07T01:36:43;13.38;;;6.20;;
69991;SDS011;57332;51.320;-0.580;2023-05-07T01:39:11;13.52;;;5.60;;
69991;SDS011;57332;51.320;-0.580;2023-05-07T01:41:38;12.02;;;5.25;;
69991;SDS011;57332;51.320;-0.580;2023-05-07T01:44:05;11.35;;;4.90;;
69991;SDS011;57332;51.320;-0.580;2023-05-07T01:46:32;10.88;;;4.60;;
69991;SDS011;57332;51.320;-0.580;2023-05-07T01:48:59;13.38;;;5.43;;
69991;SDS011;57332;51.320;-0.580;2023-05-07T01:51:26;11.63;;;5.18;;
69991;SDS011;57332;51.320;-0.580;2023-05-07T01:53:53;12.80;;;4.53;;
69991;SDS011;57332;51.320;-0.580;2023-05-07T01:56:21;12.10;;;5.53;;
69991;SDS011;57332;51.320;-0.580;2023-05-07T01:58:48;11.82;;;5.07;;
69991;SDS011;57332;51.320;-0.580;2023-05-07T02:01:15;10.73;;;5.40;;
69991;SDS011;57332;51.320;-0.580;2023-05-07T02:03:42;12.95;;;5.20;;
69991;SDS011;57332;51.320;-0.580;2023-05-07T02:06:09;9.57;;;4.70;;
69991;SDS011;57332;51.320;-0.580;2023-05-07T02:08:36;11.75;;;5.22;;
69991;SDS011;57332;51.320;-0.580;2023-05-07T02:11:03;11.07;;;4.78;;
69991;SDS011;57332;51.320;-0.580;2023-05-07T02:13:32;11.18;;;4.63;;
69991;SDS011;57332;51.320;-0.580;2023-05-07T02:15:59;9.00;;;4.40;;
69991;SDS011;57332;51.320;-0.580;2023-05-07T02:18:26;10.52;;;4.57;;
69991;SDS011;57332;51.320;-0.580;2023-05-07T02:20:53;9.65;;;3.65;;
69991;SDS011;57332;51.320;-0.580;2023-05-07T02:23:20;9.23;;;4.30;;
69991;SDS011;57332;51.320;-0.580;2023-05-07T02:25:47;9.25;;;3.80;;
69991;SDS011;57332;51.320;-0.580;2023-05-07T02:28:13;8.45;;;3.95;;
69991;SDS011;57332;51.320;-0.580;2023-05-07T02:30:40;7.93;;;4.07;;
69991;SDS011;57332;51.320;-0.580;2023-05-07T02:33:07;9.13;;;4.00;;
69991;SDS011;57332;51.320;-0.580;2023-05-07T02:35:35;7.50;;;3.63;;
69991;SDS011;57332;51.320;-0.580;2023-05-07T02:38:02;8.63;;;3.85;;
69991;SDS011;57332;51.320;-0.580;2023-05-07T02:40:29;8.82;;;4.13;;
69991;SDS011;57332;51.320;-0.580;2023-05-07T02:42:56;10.10;;;4.20;;
69991;SDS011;57332;51.320;-0.580;2023-05-07T02:45:23;8.73;;;4.00;;
69991;SDS011;57332;51.320;-0.580;2023-05-07T02:47:50;10.63;;;3.95;;
69991;SDS011;57332;51.320;-0.580;2023-05-07T02:50:16;8.65;;;3.75;;
69991;SDS011;57332;51.320;-0.580;2023-05-07T02:52:43;8.15;;;3.90;;
69991;SDS011;57332;51.320;-0.580;2023-05-07T02:55:10;8.32;;;4.55;;
69991;SDS011;57332;51.320;-0.580;2023-05-07T02:57:37;8.10;;;3.53;;
69991;SDS011;57332;51.320;-0.580;2023-05-07T03:00:13;8.07;;;3.90;;
69991;SDS011;57332;51.320;-0.580;2023-05-07T03:02:40;8.27;;;3.60;;
69991;SDS011;57332;51.320;-0.580;2023-05-07T03:05:07;8.93;;;4.13;;
69991;SDS011;57332;51.320;-0.580;2023-05-07T03:07:35;10.75;;;4.13;;
69991;SDS011;57332;51.320;-0.580;2023-05-07T03:10:03;9.02;;;3.60;;
69991;SDS011;57332;51.320;-0.580;2023-05-07T03:12:30;9.05;;;3.83;;
69991;SDS011;57332;51.320;-0.580;2023-05-07T03:14:57;9.85;;;4.13;;
69991;SDS011;57332;51.320;-0.580;2023-05-07T03:17:24;8.77;;;4.03;;
69991;SDS011;57332;51.320;-0.580;2023-05-07T03:19:51;10.15;;;4.38;;
69991;SDS011;57332;51.320;-0.580;2023-05-07T03:22:18;9.10;;;4.60;;
69991;SDS011;57332;51.320;-0.580;2023-05-07T03:24:45;11.00;;;4.18;;
69991;SDS011;57332;51.320;-0.580;2023-05-07T03:27:12;12.25;;;4.85;;
69991;SDS011;57332;51.320;-0.580;2023-05-07T03:29:39;10.40;;;4.53;;
69991;SDS011;57332;51.320;-0.580;2023-05-07T03:32:06;9.25;;;4.28;;
69991;SDS011;57332;51.320;-0.580;2023-05-07T03:34:33;12.63;;;4.82;;
69991;SDS011;57332;51.320;-0.580;2023-05-07T03:36:59;10.98;;;4.75;;
69991;SDS011;57332;51.320;-0.580;2023-05-07T03:39:26;9.75;;;4.35;;
69991;SDS011;57332;51.320;-0.580;2023-05-07T03:41:53;9.60;;;4.80;;
69991;SDS011;57332;51.320;-0.580;2023-05-07T03:44:20;10.80;;;4.43;;
69991;SDS011;57332;51.320;-0.580;2023-05-07T03:46:47;11.70;;;5.07;;
69991;SDS011;57332;51.320;-0.580;2023-05-07T03:49:14;10.40;;;4.63;;
69991;SDS011;57332;51.320;-0.580;2023-05-07T03:51:41;12.95;;;5.63;;
69991;SDS011;57332;51.320;-0.580;2023-05-07T03:54:08;11.05;;;4.90;;
69991;SDS011;57332;51.320;-0.580;2023-05-07T03:56:34;12.07;;;5.28;;
69991;SDS011;57332;51.320;-0.580;2023-05-07T03:59:01;11.25;;;4.90;;
69991;SDS011;57332;51.320;-0.580;2023-05-07T04:01:28;10.18;;;4.78;;
69991;SDS011;57332;51.320;-0.580;2023-05-07T04:03:55;11.73;;;4.80;;
69991;SDS011;57332;51.320;-0.580;2023-05-07T04:06:22;12.18;;;4.97;;
69991;SDS011;57332;51.320;-0.580;2023-05-07T04:08:49;11.75;;;4.85;;
69991;SDS011;57332;51.320;-0.580;2023-05-07T04:11:16;10.52;;;5.38;;
69991;SDS011;57332;51.320;-0.580;2023-05-07T04:13:43;12.27;;;4.97;;
69991;SDS011;57332;51.320;-0.580;2023-05-07T04:16:10;11.63;;;5.00;;
69991;SDS011;57332;51.320;-0.580;2023-05-07T04:18:37;13.23;;;5.80;;
69991;SDS011;57332;51.320;-0.580;2023-05-07T04:21:04;13.13;;;5.40;;
69991;SDS011;57332;51.320;-0.580;2023-05-07T04:23:31;13.40;;;5.65;;
69991;SDS011;57332;51.320;-0.580;2023-05-07T04:25:58;12.48;;;5.50;;
69991;SDS011;57332;51.320;-0.580;2023-05-07T04:28:24;11.30;;;5.38;;
69991;SDS011;57332;51.320;-0.580;2023-05-07T04:30:52;12.90;;;5.53;;
69991;SDS011;57332;51.320;-0.580;2023-05-07T04:33:19;11.73;;;5.10;;
69991;SDS011;57332;51.320;-0.580;2023-05-07T04:35:46;11.93;;;5.70;;
69991;SDS011;57332;51.320;-0.580;2023-05-07T04:38:13;13.45;;;5.47;;
69991;SDS011;57332;51.320;-0.580;2023-05-07T04:40:40;12.05;;;5.40;;
69991;SDS011;57332;51.320;-0.580;2023-05-07T04:43:07;13.90;;;5.57;;
69991;SDS011;57332;51.320;-0.580;2023-05-07T04:45:35;13.00;;;5.55;;
69991;SDS011;57332;51.320;-0.580;2023-05-07T04:48:02;13.68;;;5.22;;
69991;SDS011;57332;51.320;-0.580;2023-05-07T04:50:29;14.32;;;5.80;;
69991;SDS011;57332;51.320;-0.580;2023-05-07T04:52:57;12.43;;;4.93;;
69991;SDS011;57332;51.320;-0.580;2023-05-07T04:55:24;13.18;;;5.07;;
69991;SDS011;57332;51.320;-0.580;2023-05-07T04:57:51;13.60;;;5.97;;
69991;SDS011;57332;51.320;-0.580;2023-05-07T05:00:18;12.43;;;5.22;;
69991;SDS011;57332;51.320;-0.580;2023-05-07T05:02:46;13.35;;;5.05;;
69991;SDS011;57332;51.320;-0.580;2023-05-07T05:05:13;13.40;;;5.63;;
69991;SDS011;57332;51.320;-0.580;2023-05-07T05:07:40;13.50;;;5.28;;
69991;SDS011;57332;51.320;-0.580;2023-05-07T05:10:07;14.80;;;5.35;;
69991;SDS011;57332;51.320;-0.580;2023-05-07T05:12:34;11.43;;;5.40;;
69991;SDS011;57332;51.320;-0.580;2023-05-07T05:15:01;12.73;;;5.32;;
69991;SDS011;57332;51.320;-0.580;2023-05-07T05:17:27;12.63;;;5.45;;
69991;SDS011;57332;51.320;-0.580;2023-05-07T05:19:54;12.80;;;5.07;;
69991;SDS011;57332;51.320;-0.580;2023-05-07T05:22:21;16.27;;;5.90;;
69991;SDS011;57332;51.320;-0.580;2023-05-07T05:24:48;10.98;;;5.50;;
69991;SDS011;57332;51.320;-0.580;2023-05-07T05:27:15;14.77;;;6.18;;
69991;SDS011;57332;51.320;-0.580;2023-05-07T05:29:42;12.20;;;5.18;;
69991;SDS011;57332;51.320;-0.580;2023-05-07T05:32:09;13.23;;;5.43;;
69991;SDS011;57332;51.320;-0.580;2023-05-07T05:34:36;13.90;;;5.32;;
69991;SDS011;57332;51.320;-0.580;2023-05-07T05:37:03;14.93;;;5.63;;
69991;SDS011;57332;51.320;-0.580;2023-05-07T05:39:30;14.05;;;6.25;;
69991;SDS011;57332;51.320;-0.580;2023-05-07T05:41:57;12.40;;;5.47;;
69991;SDS011;57332;51.320;-0.580;2023-05-07T05:44:24;16.10;;;5.78;;
69991;SDS011;57332;51.320;-0.580;2023-05-07T05:46:51;17.55;;;6.75;;
69991;SDS011;57332;51.320;-0.580;2023-05-07T05:49:21;14.15;;;5.47;;
69991;SDS011;57332;51.320;-0.580;2023-05-07T05:51:48;16.02;;;5.70;;
69991;SDS011;57332;51.320;-0.580;2023-05-07T05:54:15;14.52;;;6.13;;
69991;SDS011;57332;51.320;-0.580;2023-05-07T05:56:42;17.48;;;6.57;;
69991;SDS011;57332;51.320;-0.580;2023-05-07T05:59:09;14.82;;;5.90;;
69991;SDS011;57332;51.320;-0.580;2023-05-07T06:01:36;14.98;;;6.43;;
69991;SDS011;57332;51.320;-0.580;2023-05-07T06:04:03;13.40;;;6.07;;
69991;SDS011;57332;51.320;-0.580;2023-05-07T06:06:30;15.88;;;5.90;;
69991;SDS011;57332;51.320;-0.580;2023-05-07T06:08:58;13.68;;;5.45;;
69991;SDS011;57332;51.320;-0.580;2023-05-07T06:11:25;12.05;;;5.03;;
69991;SDS011;57332;51.320;-0.580;2023-05-07T06:13:52;15.57;;;5.28;;
69991;SDS011;57332;51.320;-0.580;2023-05-07T06:16:19;14.77;;;5.43;;
69991;SDS011;57332;51.320;-0.580;2023-05-07T06:18:46;13.50;;;5.70;;
69991;SDS011;57332;51.320;-0.580;2023-05-07T06:21:13;12.30;;;5.35;;
69991;SDS011;57332;51.320;-0.580;2023-05-07T06:23:40;12.23;;;5.13;;
69991;SDS011;57332;51.320;-0.580;2023-05-07T06:26:07;11.60;;;5.47;;
69991;SDS011;57332;51.320;-0.580;2023-05-07T06:28:34;10.95;;;5.20;;
69991;SDS011;57332;51.320;-0.580;2023-05-07T06:31:15;10.63;;;4.30;;
69991;SDS011;57332;51.320;-0.580;2023-05-07T06:33:44;17.63;;;5.75;;
69991;SDS011;57332;51.320;-0.580;2023-05-07T06:36:11;11.73;;;4.57;;
69991;SDS011;57332;51.320;-0.580;2023-05-07T06:38:37;12.60;;;5.10;;
69991;SDS011;57332;51.320;-0.580;2023-05-07T06:41:05;10.52;;;5.07;;
69991;SDS011;57332;51.320;-0.580;2023-05-07T06:43:32;13.32;;;5.47;;
69991;SDS011;57332;51.320;-0.580;2023-05-07T06:45:59;13.55;;;5.45;;
69991;SDS011;57332;51.320;-0.580;2023-05-07T06:48:26;13.73;;;5.78;;
69991;SDS011;57332;51.320;-0.580;2023-05-07T06:50:53;13.80;;;5.53;;
69991;SDS011;57332;51.320;-0.580;2023-05-07T06:53:22;11.27;;;4.82;;
69991;SDS011;57332;51.320;-0.580;2023-05-07T06:55:49;12.07;;;5.45;;
69991;SDS011;57332;51.320;-0.580;2023-05-07T06:58:15;13.40;;;5.50;;
69991;SDS011;57332;51.320;-0.580;2023-05-07T07:00:42;12.68;;;5.38;;
69991;SDS011;57332;51.320;-0.580;2023-05-07T07:03:09;13.10;;;5.95;;
69991;SDS011;57332;51.320;-0.580;2023-05-07T07:05:36;12.77;;;5.80;;
69991;SDS011;57332;51.320;-0.580;2023-05-07T07:08:03;12.13;;;5.53;;
69991;SDS011;57332;51.320;-0.580;2023-05-07T07:10:30;13.32;;;5.25;;
69991;SDS011;57332;51.320;-0.580;2023-05-07T07:12:57;10.60;;;4.68;;
69991;SDS011;57332;51.320;-0.580;2023-05-07T07:15:24;13.88;;;5.28;;
69991;SDS011;57332;51.320;-0.580;2023-05-07T07:17:51;10.77;;;4.63;;
69991;SDS011;57332;51.320;-0.580;2023-05-07T07:20:18;10.35;;;4.55;;
69991;SDS011;57332;51.320;-0.580;2023-05-07T07:22:45;11.32;;;5.10;;
69991;SDS011;57332;51.320;-0.580;2023-05-07T07:25:12;10.90;;;4.80;;
69991;SDS011;57332;51.320;-0.580;2023-05-07T07:27:39;10.88;;;4.97;;
69991;SDS011;57332;51.320;-0.580;2023-05-07T07:30:06;10.10;;;4.70;;
69991;SDS011;57332;51.320;-0.580;2023-05-07T07:32:34;9.50;;;4.60;;
69991;SDS011;57332;51.320;-0.580;2023-05-07T07:35:00;8.18;;;4.00;;
69991;SDS011;57332;51.320;-0.580;2023-05-07T07:37:28;11.63;;;4.70;;
69991;SDS011;57332;51.320;-0.580;2023-05-07T07:39:55;10.02;;;4.70;;
69991;SDS011;57332;51.320;-0.580;2023-05-07T07:42:22;12.60;;;4.60;;
69991;SDS011;57332;51.320;-0.580;2023-05-07T07:44:49;9.35;;;4.18;;
69991;SDS011;57332;51.320;-0.580;2023-05-07T07:47:16;8.40;;;4.05;;
69991;SDS011;57332;51.320;-0.580;2023-05-07T07:49:43;10.02;;;4.38;;
69991;SDS011;57332;51.320;-0.580;2023-05-07T07:52:09;10.43;;;5.03;;
69991;SDS011;57332;51.320;-0.580;2023-05-07T07:54:36;9.63;;;4.65;;
69991;SDS011;57332;51.320;-0.580;2023-05-07T07:57:03;9.25;;;4.47;;
69991;SDS011;57332;51.320;-0.580;2023-05-07T07:59:30;8.75;;;4.43;;
69991;SDS011;57332;51.320;-0.580;2023-05-07T08:01:57;9.40;;;4.45;;
69991;SDS011;57332;51.320;-0.580;2023-05-07T08:04:24;8.07;;;4.50;;
69991;SDS011;57332;51.320;-0.580;2023-05-07T08:06:51;12.13;;;4.63;;
69991;SDS011;57332;51.320;-0.580;2023-05-07T08:09:18;9.80;;;4.10;;
69991;SDS011;57332;51.320;-0.580;2023-05-07T08:11:45;8.38;;;4.10;;
69991;SDS011;57332;51.320;-0.580;2023-05-07T08:14:12;9.68;;;4.03;;
69991;SDS011;57332;51.320;-0.580;2023-05-07T08:16:38;8.25;;;4.22;;
69991;SDS011;57332;51.320;-0.580;2023-05-07T08:19:05;8.85;;;3.95;;
69991;SDS011;57332;51.320;-0.580;2023-05-07T08:21:32;9.77;;;4.35;;
69991;SDS011;57332;51.320;-0.580;2023-05-07T08:24:00;8.93;;;4.05;;
69991;SDS011;57332;51.320;-0.580;2023-05-07T08:26:27;8.55;;;3.83;;
69991;SDS011;57332;51.320;-0.580;2023-05-07T08:28:54;8.18;;;4.07;;
69991;SDS011;57332;51.320;-0.580;2023-05-07T08:31:20;7.40;;;3.55;;
69991;SDS011;57332;51.320;-0.580;2023-05-07T08:33:47;8.25;;;4.60;;
69991;SDS011;57332;51.320;-0.580;2023-05-07T08:36:14;7.95;;;3.53;;
69991;SDS011;57332;51.320;-0.580;2023-05-07T08:38:41;7.32;;;3.40;;
69991;SDS011;57332;51.320;-0.580;2023-05-07T08:41:09;7.10;;;3.78;;
69991;SDS011;57332;51.320;-0.580;2023-05-07T08:43:36;6.38;;;3.22;;
69991;SDS011;57332;51.320;-0.580;2023-05-07T08:46:04;5.85;;;3.20;;
69991;SDS011;57332;51.320;-0.580;2023-05-07T08:48:35;5.88;;;3.35;;
69991;SDS011;57332;51.320;-0.580;2023-05-07T08:51:02;6.05;;;3.20;;
69991;SDS011;57332;51.320;-0.580;2023-05-07T08:53:29;7.50;;;3.42;;
69991;SDS011;57332;51.320;-0.580;2023-05-07T08:55:56;7.18;;;3.03;;
69991;SDS011;57332;51.320;-0.580;2023-05-07T08:58:23;6.70;;;3.25;;
69991;SDS011;57332;51.320;-0.580;2023-05-07T09:00:50;7.03;;;3.70;;
69991;SDS011;57332;51.320;-0.580;2023-05-07T09:03:18;5.75;;;3.00;;
69991;SDS011;57332;51.320;-0.580;2023-05-07T09:05:45;7.38;;;3.03;;
69991;SDS011;57332;51.320;-0.580;2023-05-07T09:08:14;5.93;;;2.88;;
69991;SDS011;57332;51.320;-0.580;2023-05-07T09:10:41;5.93;;;3.30;;
69991;SDS011;57332;51.320;-0.580;2023-05-07T09:13:08;5.43;;;2.97;;
69991;SDS011;57332;51.320;-0.580;2023-05-07T09:15:35;5.45;;;3.30;;
69991;SDS011;57332;51.320;-0.580;2023-05-07T09:18:02;9.32;;;3.30;;
69991;SDS011;57332;51.320;-0.580;2023-05-07T09:20:32;6.18;;;3.22;;
69991;SDS011;57332;51.320;-0.580;2023-05-07T09:22:59;5.38;;;2.78;;
69991;SDS011;57332;51.320;-0.580;2023-05-07T09:25:30;5.57;;;3.28;;
69991;SDS011;57332;51.320;-0.580;2023-05-07T09:27:57;6.13;;;3.15;;
69991;SDS011;57332;51.320;-0.580;2023-05-07T09:30:27;5.63;;;3.28;;
69991;SDS011;57332;51.320;-0.580;2023-05-07T09:32:53;6.18;;;3.10;;
69991;SDS011;57332;51.320;-0.580;2023-05-07T09:35:20;5.60;;;3.20;;
69991;SDS011;57332;51.320;-0.580;2023-05-07T09:37:50;5.88;;;3.60;;
69991;SDS011;57332;51.320;-0.580;2023-05-07T09:40:24;5.55;;;3.25;;
69991;SDS011;57332;51.320;-0.580;2023-05-07T09:42:51;7.30;;;3.60;;
69991;SDS011;57332;51.320;-0.580;2023-05-07T09:45:27;5.50;;;3.22;;
69991;SDS011;57332;51.320;-0.580;2023-05-07T09:47:55;7.00;;;3.30;;
69991;SDS011;57332;51.320;-0.580;2023-05-07T09:50:26;6.72;;;3.55;;
69991;SDS011;57332;51.320;-0.580;2023-05-07T09:52:54;6.72;;;3.22;;
69991;SDS011;57332;51.320;-0.580;2023-05-07T09:55:22;5.88;;;3.10;;
69991;SDS011;57332;51.320;-0.580;2023-05-07T09:57:52;6.63;;;3.33;;
69991;SDS011;57332;51.320;-0.580;2023-05-07T10:00:19;4.95;;;2.67;;
69991;SDS011;57332;51.320;-0.580;2023-05-07T10:02:48;6.45;;;3.40;;
69991;SDS011;57332;51.320;-0.580;2023-05-07T10:05:16;4.97;;;3.20;;
69991;SDS011;57332;51.320;-0.580;2023-05-07T10:07:43;6.68;;;3.03;;
69991;SDS011;57332;51.320;-0.580;2023-05-07T10:10:11;5.32;;;3.10;;
69991;SDS011;57332;51.320;-0.580;2023-05-07T10:12:38;6.05;;;3.10;;
69991;SDS011;57332;51.320;-0.580;2023-05-07T10:15:10;5.03;;;2.60;;
69991;SDS011;57332;51.320;-0.580;2023-05-07T10:17:38;5.30;;;2.67;;
69991;SDS011;57332;51.320;-0.580;2023-05-07T10:20:05;5.10;;;2.90;;
69991;SDS011;57332;51.320;-0.580;2023-05-07T10:22:38;4.95;;;3.30;;
69991;SDS011;57332;51.320;-0.580;2023-05-07T10:25:06;5.97;;;3.13;;
69991;SDS011;57332;51.320;-0.580;2023-05-07T10:27:36;5.38;;;3.35;;
69991;SDS011;57332;51.320;-0.580;2023-05-07T10:32:48;6.72;;;3.53;;
69991;SDS011;57332;51.320;-0.580;2023-05-07T10:35:18;6.15;;;2.90;;
69991;SDS011;57332;51.320;-0.580;2023-05-07T10:37:45;7.45;;;3.63;;
69991;SDS011;57332;51.320;-0.580;2023-05-07T10:40:13;5.95;;;3.63;;
69991;SDS011;57332;51.320;-0.580;2023-05-07T10:42:56;7.10;;;3.47;;
69991;SDS011;57332;51.320;-0.580;2023-05-07T10:45:23;5.60;;;3.30;;
69991;SDS011;57332;51.320;-0.580;2023-05-07T10:51:17;5.57;;;2.88;;
69991;SDS011;57332;51.320;-0.580;2023-05-07T10:53:40;5.47;;;2.83;;
69991;SDS011;57332;51.320;-0.580;2023-05-07T10:58:43;5.50;;;2.92;;
69991;SDS011;57332;51.320;-0.580;2023-05-07T11:01:10;5.55;;;2.90;;
69991;SDS011;57332;51.320;-0.580;2023-05-07T11:06:24;4.30;;;2.60;;
69991;SDS011;57332;51.320;-0.580;2023-05-07T11:11:18;4.90;;;2.53;;
69991;SDS011;57332;51.320;-0.580;2023-05-07T11:13:49;4.35;;;2.53;;
69991;SDS011;57332;51.320;-0.580;2023-05-07T11:16:22;5.32;;;2.92;;
69991;SDS011;57332;51.320;-0.580;2023-05-07T11:18:50;4.13;;;2.67;;
69991;SDS011;57332;51.320;-0.580;2023-05-07T11:21:33;5.07;;;2.60;;
69991;SDS011;57332;51.320;-0.580;2023-05-07T11:24:01;4.40;;;2.60;;
69991;SDS011;57332;51.320;-0.580;2023-05-07T11:26:29;7.18;;;2.80;;
69991;SDS011;57332;51.320;-0.580;2023-05-07T11:28:56;4.60;;;3.00;;
69991;SDS011;57332;51.320;-0.580;2023-05-07T11:31:24;4.28;;;2.90;;
69991;SDS011;57332;51.320;-0.580;2023-05-07T11:33:52;4.10;;;2.67;;
69991;SDS011;57332;51.320;-0.580;2023-05-07T11:36:21;4.93;;;2.60;;
69991;SDS011;57332;51.320;-0.580;2023-05-07T11:38:48;5.82;;;2.95;;
69991;SDS011;57332;51.320;-0.580;2023-05-07T11:41:15;5.38;;;2.75;;
69991;SDS011;57332;51.320;-0.580;2023-05-07T11:43:58;4.32;;;2.47;;
69991;SDS011;57332;51.320;-0.580;2023-05-07T11:46:26;5.78;;;2.88;;
69991;SDS011;57332;51.320;-0.580;2023-05-07T11:48:54;5.07;;;2.85;;
69991;SDS011;57332;51.320;-0.580;2023-05-07T11:51:21;5.05;;;2.90;;
69991;SDS011;57332;51.320;-0.580;2023-05-07T11:53:49;3.83;;;2.40;;
69991;SDS011;57332;51.320;-0.580;2023-05-07T11:56:17;8.07;;;2.97;;
69991;SDS011;57332;51.320;-0.580;2023-05-07T11:58:44;5.45;;;2.42;;
69991;SDS011;57332;51.320;-0.580;2023-05-07T12:01:12;4.20;;;2.90;;
69991;SDS011;57332;51.320;-0.580;2023-05-07T12:03:39;3.10;;;2.08;;
69991;SDS011;57332;51.320;-0.580;2023-05-07T12:06:09;5.05;;;2.72;;
69991;SDS011;57332;51.320;-0.580;2023-05-07T12:08:38;4.05;;;2.33;;
69991;SDS011;57332;51.320;-0.580;2023-05-07T12:11:08;4.45;;;2.28;;
69991;SDS011;57332;51.320;-0.580;2023-05-07T12:13:36;5.22;;;2.60;;
69991;SDS011;57332;51.320;-0.580;2023-05-07T12:16:03;3.80;;;2.40;;
69991;SDS011;57332;51.320;-0.580;2023-05-07T12:18:30;3.60;;;2.20;;
69991;SDS011;57332;51.320;-0.580;2023-05-07T12:20:57;4.45;;;2.38;;
69991;SDS011;57332;51.320;-0.580;2023-05-07T12:23:25;3.17;;;1.90;;
69991;SDS011;57332;51.320;-0.580;2023-05-07T12:25:52;4.05;;;2.08;;
69991;SDS011;57332;51.320;-0.580;2023-05-07T12:28:19;3.17;;;2.28;;
69991;SDS011;57332;51.320;-0.580;2023-05-07T12:30:47;4.45;;;1.98;;
69991;SDS011;57332;51.320;-0.580;2023-05-07T12:33:18;4.03;;;1.60;;
69991;SDS011;57332;51.320;-0.580;2023-05-07T12:35:45;2.72;;;1.73;;
69991;SDS011;57332;51.320;-0.580;2023-05-07T12:38:14;2.83;;;1.92;;
69991;SDS011;57332;51.320;-0.580;2023-05-07T12:40:43;3.13;;;1.92;;
69991;SDS011;57332;51.320;-0.580;2023-05-07T12:45:44;4.28;;;1.95;;
69991;SDS011;57332;51.320;-0.580;2023-05-07T12:48:12;3.22;;;1.70;;
69991;SDS011;57332;51.320;-0.580;2023-05-07T12:50:39;3.38;;;2.03;;
69991;SDS011;57332;51.320;-0.580;2023-05-07T12:53:07;3.45;;;2.22;;
69991;SDS011;57332;51.320;-0.580;2023-05-07T12:55:41;2.65;;;1.85;;
69991;SDS011;57332;51.320;-0.580;2023-05-07T12:58:14;3.15;;;1.75;;
69991;SDS011;57332;51.320;-0.580;2023-05-07T13:00:41;3.42;;;1.65;;
69991;SDS011;57332;51.320;-0.580;2023-05-07T13:03:09;2.70;;;1.58;;
69991;SDS011;57332;51.320;-0.580;2023-05-07T13:05:37;3.28;;;2.15;;
69991;SDS011;57332;51.320;-0.580;2023-05-07T13:08:04;3.35;;;1.52;;
69991;SDS011;57332;51.320;-0.580;2023-05-07T13:10:30;4.13;;;1.70;;
69991;SDS011;57332;51.320;-0.580;2023-05-07T13:12:57;2.20;;;1.90;;
69991;SDS011;57332;51.320;-0.580;2023-05-07T13:15:24;2.97;;;1.77;;
69991;SDS011;57332;51.320;-0.580;2023-05-07T13:17:51;3.85;;;1.70;;
69991;SDS011;57332;51.320;-0.580;2023-05-07T13:20:18;2.03;;;1.70;;
69991;SDS011;57332;51.320;-0.580;2023-05-07T13:22:45;4.07;;;1.90;;
69991;SDS011;57332;51.320;-0.580;2023-05-07T13:25:12;3.20;;;1.90;;
69991;SDS011;57332;51.320;-0.580;2023-05-07T13:27:39;3.88;;;2.20;;
69991;SDS011;57332;51.320;-0.580;2023-05-07T13:30:06;4.25;;;1.88;;
69991;SDS011;57332;51.320;-0.580;2023-05-07T13:32:34;2.67;;;2.00;;
69991;SDS011;57332;51.320;-0.580;2023-05-07T13:35:01;2.50;;;1.65;;
69991;SDS011;57332;51.320;-0.580;2023-05-07T13:37:28;1.85;;;1.33;;
69991;SDS011;57332;51.320;-0.580;2023-05-07T13:39:54;3.47;;;1.92;;
69991;SDS011;57332;51.320;-0.580;2023-05-07T13:42:21;4.22;;;1.98;;
69991;SDS011;57332;51.320;-0.580;2023-05-07T13:44:48;2.60;;;1.55;;
69991;SDS011;57332;51.320;-0.580;2023-05-07T13:47:15;3.58;;;2.10;;
69991;SDS011;57332;51.320;-0.580;2023-05-07T13:49:42;4.13;;;1.80;;
69991;SDS011;57332;51.320;-0.580;2023-05-07T13:52:09;3.78;;;1.65;;
69991;SDS011;57332;51.320;-0.580;2023-05-07T13:54:36;4.78;;;1.95;;
69991;SDS011;57332;51.320;-0.580;2023-05-07T13:57:03;3.08;;;2.03;;
69991;SDS011;57332;51.320;-0.580;2023-05-07T13:59:29;2.63;;;1.58;;
69991;SDS011;57332;51.320;-0.580;2023-05-07T14:01:56;3.13;;;1.30;;
69991;SDS011;57332;51.320;-0.580;2023-05-07T14:04:23;2.67;;;1.45;;
69991;SDS011;57332;51.320;-0.580;2023-05-07T14:06:50;3.17;;;1.58;;
69991;SDS011;57332;51.320;-0.580;2023-05-07T14:09:17;3.65;;;1.60;;
69991;SDS011;57332;51.320;-0.580;2023-05-07T14:11:43;2.28;;;1.75;;
69991;SDS011;57332;51.320;-0.580;2023-05-07T14:14:10;2.88;;;1.75;;
69991;SDS011;57332;51.320;-0.580;2023-05-07T14:16:37;4.57;;;1.80;;
69991;SDS011;57332;51.320;-0.580;2023-05-07T14:19:04;3.30;;;2.00;;
69991;SDS011;57332;51.320;-0.580;2023-05-07T14:21:31;2.88;;;1.42;;
69991;SDS011;57332;51.320;-0.580;2023-05-07T14:23:58;2.83;;;1.80;;
69991;SDS011;57332;51.320;-0.580;2023-05-07T14:26:26;2.85;;;1.70;;
69991;SDS011;57332;51.320;-0.580;2023-05-07T14:28:53;2.63;;;1.83;;
69991;SDS011;57332;51.320;-0.580;2023-05-07T14:31:21;2.47;;;1.77;;
69991;SDS011;57332;51.320;-0.580;2023-05-07T14:33:48;3.22;;;1.80;;
69991;SDS011;57332;51.320;-0.580;2023-05-07T14:36:17;2.80;;;1.65;;
69991;SDS011;57332;51.320;-0.580;2023-05-07T14:38:44;3.05;;;1.75;;
69991;SDS011;57332;51.320;-0.580;2023-05-07T14:41:11;2.15;;;1.42;;
69991;SDS011;57332;51.320;-0.580;2023-05-07T14:43:38;2.78;;;1.73;;
69991;SDS011;57332;51.320;-0.580;2023-05-07T14:46:05;3.42;;;1.70;;